createdAt,value
2018-09-19T00:00:03.263Z,7.70
2018-09-19T00:02:31.520Z,7.70
2018-09-19T00:04:59.829Z,8.30
2018-09-19T00:07:28.092Z,7.37
2018-09-19T00:09:56.382Z,6.90
2018-09-19T00:12:24.628Z,6.10
2018-09-19T00:14:52.910Z,7.87
2018-09-19T00:17:21.177Z,7.57
2018-09-19T00:19:49.459Z,7.00
2018-09-19T00:22:17.748Z,6.90
2018-09-19T00:24:46.012Z,6.30
2018-09-19T00:27:14.289Z,7.00
2018-09-19T00:29:42.569Z,7.30
2018-09-19T00:32:10.817Z,6.57
2018-09-19T00:34:39.056Z,6.37
2018-09-19T00:37:07.529Z,7.30
2018-09-19T00:39:35.802Z,7.03
2018-09-19T00:42:04.050Z,7.43
2018-09-19T00:44:32.374Z,6.83
2018-09-19T00:47:00.623Z,6.50
2018-09-19T00:49:28.861Z,6.80
2018-09-19T00:51:57.200Z,6.60
2018-09-19T00:54:25.449Z,6.73
2018-09-19T00:56:53.720Z,6.73
2018-09-19T00:59:21.984Z,6.67
2018-09-19T01:01:50.340Z,6.60
2018-09-19T01:04:18.740Z,6.40
2018-09-19T01:06:47.003Z,6.13
2018-09-19T01:09:15.273Z,7.33
2018-09-19T01:11:43.592Z,7.00
2018-09-19T01:14:11.871Z,6.30
2018-09-19T01:16:40.194Z,6.60
2018-09-19T01:19:08.504Z,6.80
2018-09-19T01:21:36.798Z,6.67
2018-09-19T01:24:05.240Z,6.63
2018-09-19T01:26:33.482Z,7.00
2018-09-19T01:29:01.744Z,7.23
2018-09-19T01:31:30.041Z,7.23
2018-09-19T01:33:58.337Z,7.03
2018-09-19T01:36:26.624Z,7.30
2018-09-19T01:38:54.896Z,7.00
2018-09-19T01:41:23.136Z,6.27
2018-09-19T01:43:51.416Z,7.20
2018-09-19T01:46:19.733Z,6.70
2018-09-19T01:48:48.008Z,6.43
2018-09-19T01:51:16.337Z,6.13
2018-09-19T01:53:44.623Z,5.83
2018-09-19T01:56:12.928Z,7.17
2018-09-19T01:58:41.181Z,6.87
2018-09-19T02:01:09.415Z,7.23
2018-09-19T02:03:38.140Z,6.83
2018-09-19T02:06:06.460Z,6.80
2018-09-19T02:08:34.686Z,6.40
2018-09-19T02:11:02.963Z,6.63
2018-09-19T02:13:31.237Z,7.40
2018-09-19T02:15:59.456Z,6.77
2018-09-19T02:18:27.776Z,7.00
2018-09-19T02:20:56.213Z,7.33
2018-09-19T02:23:24.485Z,7.10
2018-09-19T02:25:52.848Z,7.43
2018-09-19T02:28:21.154Z,6.73
2018-09-19T02:30:49.749Z,6.63
2018-09-19T02:33:18.062Z,7.00
2018-09-19T02:35:46.333Z,7.23
2018-09-19T02:38:14.588Z,7.40
2018-09-19T02:40:42.864Z,6.27
2018-09-19T02:43:11.193Z,6.80
2018-09-19T02:45:39.453Z,6.77
2018-09-19T02:48:07.774Z,7.23
2018-09-19T02:50:36.027Z,7.20
2018-09-19T02:53:04.299Z,6.90
2018-09-19T02:55:32.565Z,7.03
2018-09-19T02:58:00.844Z,5.90
2018-09-19T03:00:29.077Z,6.87
2018-09-19T03:02:57.377Z,6.77
2018-09-19T03:05:25.626Z,6.73
2018-09-19T03:07:53.906Z,6.47
2018-09-19T03:10:22.218Z,6.70
2018-09-19T03:12:50.477Z,6.67
2018-09-19T03:15:18.743Z,7.10
2018-09-19T03:17:47.160Z,7.20
2018-09-19T03:20:15.370Z,6.37
2018-09-19T03:22:43.598Z,7.37
2018-09-19T03:25:11.874Z,6.67
2018-09-19T03:27:40.119Z,7.17
2018-09-19T03:30:08.416Z,7.17
2018-09-19T03:32:36.737Z,6.17
2018-09-19T03:35:05.030Z,7.30
2018-09-19T03:37:33.324Z,6.97
2018-09-19T03:40:01.603Z,6.57
2018-09-19T03:42:29.862Z,6.30
2018-09-19T03:44:58.220Z,7.00
2018-09-19T03:47:26.468Z,6.93
2018-09-19T03:49:54.724Z,6.27
2018-09-19T03:52:23.053Z,7.73
2018-09-19T03:54:51.359Z,6.30
2018-09-19T03:57:19.640Z,6.90
2018-09-19T03:59:47.917Z,6.80
2018-09-19T04:02:16.192Z,7.17
2018-09-19T04:04:44.478Z,8.30
2018-09-19T04:07:12.744Z,7.70
2018-09-19T04:09:40.996Z,7.40
2018-09-19T04:12:09.268Z,7.43
2018-09-19T04:14:37.780Z,8.50
2018-09-19T04:17:06.094Z,8.33
2018-09-19T04:19:34.353Z,8.43
2018-09-19T04:22:02.635Z,8.93
2018-09-19T04:24:30.901Z,9.43
2018-09-19T04:26:59.198Z,8.70
2018-09-19T04:29:27.593Z,9.93
2018-09-19T04:31:55.857Z,10.53
2018-09-19T04:34:24.121Z,9.20
2018-09-19T04:36:52.555Z,10.40
2018-09-19T04:39:20.873Z,9.83
2018-09-19T04:41:49.162Z,9.73
2018-09-19T04:47:48.913Z,10.17
2018-09-19T04:50:17.165Z,11.13
2018-09-19T04:52:45.473Z,11.30
2018-09-19T04:55:13.751Z,12.13
2018-09-19T04:57:42.042Z,12.17
2018-09-19T05:00:13.780Z,12.83
2018-09-19T05:02:42.014Z,12.73
2018-09-19T05:05:10.284Z,11.80
2018-09-19T05:07:38.566Z,11.97
2018-09-19T05:10:07.100Z,11.90
2018-09-19T05:12:35.398Z,11.80
2018-09-19T05:15:03.703Z,11.90
2018-09-19T05:17:31.978Z,12.20
2018-09-19T05:20:00.251Z,11.70
2018-09-19T05:22:28.515Z,12.63
2018-09-19T05:24:56.892Z,12.30
2018-09-19T05:27:25.182Z,12.80
2018-09-19T05:29:53.457Z,12.80
2018-09-19T05:32:21.737Z,13.90
2018-09-19T05:34:50.882Z,15.53
2018-09-19T05:37:19.133Z,13.83
2018-09-19T05:39:47.380Z,12.87
2018-09-19T05:42:15.662Z,13.63
2018-09-19T05:44:43.943Z,13.60
2018-09-19T05:47:12.202Z,13.07
2018-09-19T05:49:40.483Z,12.00
2018-09-19T05:52:08.746Z,12.97
2018-09-19T05:54:37.082Z,12.30
2018-09-19T05:57:05.502Z,11.67
2018-09-19T05:59:33.764Z,11.73
2018-09-19T06:02:02.216Z,11.37
2018-09-19T06:04:30.469Z,11.77
2018-09-19T06:06:58.858Z,11.50
2018-09-19T06:09:27.104Z,12.07
2018-09-19T06:11:55.381Z,11.23
2018-09-19T06:14:23.772Z,11.33
2018-09-19T06:16:52.040Z,11.93
2018-09-19T06:19:20.298Z,11.47
2018-09-19T06:21:48.596Z,11.17
2018-09-19T06:24:16.862Z,11.20
2018-09-19T06:26:45.092Z,11.43
2018-09-19T06:29:13.442Z,11.57
2018-09-19T06:31:41.684Z,10.43
2018-09-19T06:34:09.922Z,11.00
2018-09-19T06:36:38.159Z,11.20
2018-09-19T06:39:07.688Z,10.77
2018-09-19T06:41:35.979Z,10.47
2018-09-19T06:44:04.221Z,10.30
2018-09-19T06:46:32.505Z,9.87
2018-09-19T06:49:00.754Z,10.10
2018-09-19T06:51:29.024Z,9.63
2018-09-19T06:53:57.420Z,9.83
2018-09-19T06:56:26.318Z,9.50
2018-09-19T06:58:54.589Z,8.70
2018-09-19T07:01:22.932Z,8.90
2018-09-19T07:03:51.267Z,9.07
2018-09-19T07:06:19.524Z,9.17
2018-09-19T07:08:47.877Z,8.53
2018-09-19T07:11:16.125Z,8.07
2018-09-19T07:13:44.357Z,8.90
2018-09-19T07:16:12.703Z,7.63
2018-09-19T07:18:40.949Z,7.17
2018-09-19T07:21:09.217Z,7.93
2018-09-19T07:23:37.538Z,6.93
2018-09-19T07:26:05.752Z,7.53
2018-09-19T07:28:33.991Z,8.40
2018-09-19T07:31:02.428Z,7.43
2018-09-19T07:33:30.593Z,8.73
2018-09-19T07:35:58.844Z,7.87
2018-09-19T07:38:27.145Z,7.33
2018-09-19T07:40:55.392Z,7.67
2018-09-19T07:43:23.668Z,8.33
2018-09-19T07:45:51.935Z,6.93
2018-09-19T07:48:20.186Z,7.37
2018-09-19T07:50:48.632Z,6.40
2018-09-19T07:53:16.909Z,6.13
2018-09-19T07:55:45.186Z,6.27
2018-09-19T07:58:13.637Z,6.67
2018-09-19T08:00:41.991Z,6.13
2018-09-19T08:03:10.189Z,6.10
2018-09-19T08:05:38.482Z,5.83
2018-09-19T08:08:06.814Z,6.00
2018-09-19T08:10:35.074Z,6.10
2018-09-19T08:13:03.386Z,5.17
2018-09-19T08:15:31.615Z,5.47
2018-09-19T08:17:59.848Z,5.60
2018-09-19T08:20:28.139Z,5.15
2018-09-19T08:22:56.383Z,5.53
2018-09-19T08:25:24.653Z,4.97
2018-09-19T08:27:52.920Z,4.83
2018-09-19T08:30:21.254Z,5.00
2018-09-19T08:32:49.530Z,4.60
2018-09-19T08:35:17.805Z,4.35
2018-09-19T08:37:46.055Z,5.55
2018-09-19T08:40:14.366Z,4.37
2018-09-19T08:42:42.648Z,4.22
2018-09-19T08:45:10.918Z,4.30
2018-09-19T08:47:39.206Z,4.40
2018-09-19T08:50:07.547Z,4.30
2018-09-19T08:52:35.788Z,4.20
2018-09-19T08:55:04.075Z,4.00
2018-09-19T08:57:32.341Z,4.25
2018-09-19T09:00:00.623Z,4.17
2018-09-19T09:02:28.897Z,4.30
2018-09-19T09:05:03.969Z,3.98
2018-09-19T09:07:32.334Z,4.20
2018-09-19T09:10:00.564Z,3.70
2018-09-19T09:12:28.853Z,4.10
2018-09-19T09:14:57.069Z,3.85
2018-09-19T09:17:25.312Z,3.95
2018-09-19T09:19:53.740Z,3.60
2018-09-19T09:22:21.976Z,3.27
2018-09-19T09:24:50.269Z,3.67
2018-09-19T09:27:18.626Z,3.60
2018-09-19T09:29:46.849Z,3.83
2018-09-19T09:34:42.593Z,3.83
2018-09-19T09:37:10.888Z,3.70
2018-09-19T09:39:39.289Z,4.60
2018-09-19T09:42:07.576Z,6.28
2018-09-19T09:44:35.860Z,4.35
2018-09-19T09:47:04.118Z,3.70
2018-09-19T09:49:32.409Z,3.50
2018-09-19T09:52:00.786Z,3.90
2018-09-19T09:54:29.010Z,3.90
2018-09-19T09:56:57.259Z,3.83
2018-09-19T09:59:25.632Z,3.50
2018-09-19T10:01:54.009Z,3.75
2018-09-19T10:04:22.285Z,3.52
2018-09-19T10:06:50.693Z,3.60
2018-09-19T10:09:18.954Z,3.15
2018-09-19T10:11:47.448Z,3.70
2018-09-19T10:14:15.693Z,3.02
2018-09-19T10:16:43.958Z,4.10
2018-09-19T10:19:12.203Z,2.67
2018-09-19T10:21:40.440Z,3.58
2018-09-19T10:24:08.717Z,3.35
2018-09-19T10:26:36.988Z,3.17
2018-09-19T10:29:05.254Z,3.55
2018-09-19T10:31:33.491Z,3.25
2018-09-19T10:34:01.831Z,3.25
2018-09-19T10:36:30.075Z,3.45
2018-09-19T10:38:58.358Z,2.55
2018-09-19T10:41:26.640Z,3.67
2018-09-19T10:43:54.919Z,3.90
2018-09-19T10:46:23.168Z,3.08
2018-09-19T10:48:51.456Z,2.83
2018-09-19T10:51:19.684Z,3.20
2018-09-19T10:53:48.133Z,2.55
2018-09-19T10:56:16.409Z,3.35
2018-09-19T10:58:44.655Z,3.25
2018-09-19T11:01:12.952Z,3.35
2018-09-19T11:03:41.296Z,3.12
2018-09-19T11:06:09.584Z,3.70
2018-09-19T11:08:37.883Z,3.37
2018-09-19T11:11:06.581Z,2.75
2018-09-19T11:13:34.869Z,3.17
2018-09-19T11:16:03.149Z,3.02
2018-09-19T11:18:31.413Z,3.20
2018-09-19T11:20:59.664Z,4.00
2018-09-19T11:23:27.991Z,3.47
2018-09-19T11:25:56.249Z,3.27
2018-09-19T11:28:25.003Z,3.58
2018-09-19T11:30:55.706Z,2.77
2018-09-19T11:33:23.976Z,3.55
2018-09-19T11:35:52.265Z,3.37
2018-09-19T11:38:20.517Z,2.67
2018-09-19T11:40:48.784Z,3.85
2018-09-19T11:43:17.053Z,3.10
2018-09-19T11:45:45.265Z,3.17
2018-09-19T11:48:13.565Z,2.95
2018-09-19T11:50:41.862Z,3.27
2018-09-19T11:53:41.711Z,2.80
2018-09-19T11:56:09.989Z,3.30
2018-09-19T11:58:39.013Z,3.33
2018-09-19T12:01:07.315Z,2.98
2018-09-19T12:03:35.560Z,3.25
2018-09-19T12:06:04.144Z,3.15
2018-09-19T12:08:32.453Z,2.92
2018-09-19T12:11:00.784Z,2.60
2018-09-19T12:13:29.022Z,3.08
2018-09-19T12:15:57.389Z,3.02
2018-09-19T12:18:25.826Z,2.77
2018-09-19T12:20:54.907Z,2.72
2018-09-19T12:23:23.216Z,3.20
2018-09-19T12:25:51.477Z,2.60
2018-09-19T12:28:19.858Z,2.90
2018-09-19T12:30:48.185Z,3.30
2018-09-19T12:33:16.571Z,3.12
2018-09-19T12:35:44.904Z,2.83
2018-09-19T12:38:13.175Z,2.65
2018-09-19T12:40:41.498Z,2.37
2018-09-19T12:43:09.753Z,3.08
2018-09-19T12:45:38.041Z,3.35
2018-09-19T12:48:06.378Z,2.60
2018-09-19T12:50:34.683Z,3.15
2018-09-19T12:53:03.172Z,2.90
2018-09-19T12:55:31.425Z,3.60
2018-09-19T12:57:59.686Z,2.80
2018-09-19T13:00:27.913Z,2.70
2018-09-19T13:02:56.189Z,3.47
2018-09-19T13:05:24.424Z,3.35
2018-09-19T13:07:52.655Z,2.62
2018-09-19T13:10:20.929Z,2.52
2018-09-19T13:12:49.208Z,3.12
2018-09-19T13:15:17.516Z,2.95
2018-09-19T13:17:45.797Z,3.45
2018-09-19T13:20:14.069Z,2.75
2018-09-19T13:22:42.335Z,3.12
2018-09-19T13:25:10.640Z,3.50
2018-09-19T13:27:38.937Z,4.40
2018-09-19T13:30:07.338Z,3.60
2018-09-19T13:32:35.589Z,3.35
2018-09-19T13:35:03.842Z,3.65
2018-09-19T13:37:32.304Z,3.55
2018-09-19T13:40:00.594Z,3.95
2018-09-19T13:42:28.903Z,3.67
2018-09-19T13:44:57.604Z,3.30
2018-09-19T13:47:25.935Z,3.58
2018-09-19T13:49:58.084Z,3.77
2018-09-19T13:52:26.545Z,3.58
2018-09-19T13:54:54.813Z,3.75
2018-09-19T13:57:23.092Z,3.55
2018-09-19T13:59:51.364Z,3.47
2018-09-19T14:02:19.604Z,3.47
2018-09-19T14:04:47.898Z,3.55
2018-09-19T14:07:16.210Z,3.52
2018-09-19T14:09:44.485Z,3.62
2018-09-19T14:12:12.821Z,3.65
2018-09-19T14:14:41.037Z,3.62
2018-09-19T14:17:09.590Z,4.03
2018-09-19T14:19:37.887Z,3.50
2018-09-19T14:22:06.221Z,3.50
2018-09-19T14:24:34.544Z,3.67
2018-09-19T14:27:02.841Z,3.92
2018-09-19T14:29:31.216Z,3.92
2018-09-19T14:31:59.453Z,4.42
2018-09-19T14:34:27.729Z,4.10
2018-09-19T14:36:55.980Z,3.50
2018-09-19T14:39:24.249Z,4.22
2018-09-19T14:41:52.527Z,4.35
2018-09-19T14:44:20.790Z,4.10
2018-09-19T14:46:49.213Z,3.60
2018-09-19T14:49:17.526Z,3.90
2018-09-19T14:51:45.788Z,4.60
2018-09-19T14:54:14.215Z,3.67
2018-09-19T14:56:42.389Z,3.72
2018-09-19T14:59:10.709Z,4.00
2018-09-19T15:01:39.007Z,4.05
2018-09-19T15:04:07.297Z,4.50
2018-09-19T15:06:35.555Z,4.50
2018-09-19T15:09:04.886Z,4.00
2018-09-19T15:11:33.156Z,4.75
2018-09-19T15:14:01.488Z,4.25
2018-09-19T15:16:29.717Z,4.83
2018-09-19T15:18:57.977Z,4.37
2018-09-19T15:21:26.381Z,4.30
2018-09-19T15:23:54.694Z,4.35
2018-09-19T15:26:23.743Z,4.58
2018-09-19T15:28:52.003Z,4.80
2018-09-19T15:31:20.649Z,4.30
2018-09-19T15:33:48.897Z,4.33
2018-09-19T15:36:17.157Z,4.35
2018-09-19T15:38:45.502Z,4.83
2018-09-19T15:41:13.814Z,4.28
2018-09-19T15:43:48.852Z,4.15
2018-09-19T15:46:17.081Z,4.60
2018-09-19T15:48:45.481Z,4.50
2018-09-19T15:51:13.758Z,5.03
2018-09-19T15:53:42.045Z,4.80
2018-09-19T15:56:10.298Z,4.53
2018-09-19T15:58:38.589Z,4.78
2018-09-19T16:01:06.839Z,5.75
2018-09-19T16:03:35.094Z,4.83
2018-09-19T16:06:03.416Z,5.10
2018-09-19T16:08:31.708Z,4.70
2018-09-19T16:11:00.195Z,6.70
2018-09-19T16:13:28.486Z,4.83
2018-09-19T16:15:56.765Z,5.05
2018-09-19T16:18:25.049Z,5.10
2018-09-19T16:20:53.602Z,4.75
2018-09-19T16:23:21.777Z,5.67
2018-09-19T16:25:50.105Z,5.22
2018-09-19T16:28:18.382Z,6.15
2018-09-19T16:30:46.792Z,6.35
2018-09-19T16:33:15.128Z,5.60
2018-09-19T16:35:43.485Z,5.12
2018-09-19T16:38:11.881Z,5.33
2018-09-19T16:40:40.265Z,4.85
2018-09-19T16:43:08.684Z,5.55
2018-09-19T16:45:37.148Z,5.70
2018-09-19T16:48:05.469Z,5.25
2018-09-19T16:50:33.804Z,5.12
2018-09-19T16:53:02.107Z,5.22
2018-09-19T16:55:30.425Z,4.80
2018-09-19T16:57:58.698Z,4.65
2018-09-19T17:00:27.019Z,6.20
2018-09-19T17:02:55.282Z,4.83
2018-09-19T17:05:23.558Z,4.70
2018-09-19T17:07:51.805Z,6.20
2018-09-19T17:10:20.058Z,5.37
2018-09-19T17:12:48.341Z,6.22
2018-09-19T17:15:16.652Z,6.30
2018-09-19T17:17:44.878Z,6.15
2018-09-19T17:20:13.164Z,5.53
2018-09-19T17:22:41.409Z,6.03
2018-09-19T17:25:09.717Z,7.42
2018-09-19T17:27:37.933Z,6.55
2018-09-19T17:30:06.693Z,6.10
2018-09-19T17:32:34.976Z,6.17
2018-09-19T17:35:03.265Z,6.05
2018-09-19T17:37:31.515Z,5.67
2018-09-19T17:39:59.948Z,4.80
2018-09-19T17:42:28.311Z,5.00
2018-09-19T17:44:56.561Z,5.33
2018-09-19T17:47:24.827Z,5.63
2018-09-19T17:49:53.233Z,6.10
2018-09-19T17:52:21.441Z,6.50
2018-09-19T17:54:49.723Z,7.20
2018-09-19T17:57:17.997Z,5.77
2018-09-19T17:59:46.338Z,5.57
2018-09-19T18:02:14.635Z,5.43
2018-09-19T18:04:42.928Z,5.03
2018-09-19T18:07:11.436Z,6.63
2018-09-19T18:09:39.745Z,5.70
2018-09-19T18:12:08.075Z,6.73
2018-09-19T18:14:36.437Z,7.07
2018-09-19T18:17:04.712Z,7.30
2018-09-19T18:19:33.007Z,6.57
2018-09-19T18:22:01.576Z,6.33
2018-09-19T18:24:30.719Z,5.90
2018-09-19T18:26:59.422Z,6.07
2018-09-19T18:29:27.601Z,6.30
2018-09-19T18:31:55.953Z,6.27
2018-09-19T18:34:24.199Z,5.23
2018-09-19T18:36:52.468Z,5.83
2018-09-19T18:39:20.717Z,5.83
2018-09-19T18:41:48.973Z,6.20
2018-09-19T18:44:17.257Z,5.10
2018-09-19T18:46:45.564Z,7.20
2018-09-19T18:49:13.942Z,8.57
2018-09-19T18:51:42.222Z,5.80
2018-09-19T18:54:10.744Z,5.23
2018-09-19T18:56:39.548Z,7.20
2018-09-19T18:59:07.816Z,7.90
2018-09-19T19:01:36.094Z,8.07
2018-09-19T19:04:04.363Z,8.83
2018-09-19T19:06:32.613Z,13.20
2018-09-19T19:09:00.895Z,13.17
2018-09-19T19:11:29.165Z,13.77
2018-09-19T19:13:57.487Z,12.67
2018-09-19T19:16:25.900Z,12.20
2018-09-19T19:18:54.442Z,13.43
2018-09-19T19:21:22.705Z,16.60
2018-09-19T19:23:51.000Z,15.20
2018-09-19T19:26:19.253Z,14.60
2018-09-19T19:28:47.664Z,16.00
2018-09-19T19:31:15.925Z,17.10
2018-09-19T19:33:44.213Z,18.03
2018-09-19T19:36:12.497Z,18.23
2018-09-19T19:38:40.821Z,17.50
2018-09-19T19:41:09.184Z,17.77
2018-09-19T19:43:37.397Z,16.43
2018-09-19T19:46:05.721Z,17.40
2018-09-19T19:48:33.969Z,17.47
2018-09-19T19:51:02.383Z,18.70
2018-09-19T19:53:30.676Z,18.27
2018-09-19T19:55:59.088Z,19.10
2018-09-19T19:58:27.430Z,18.90
2018-09-19T20:00:55.697Z,18.73
2018-09-19T20:03:23.925Z,20.20
2018-09-19T20:05:52.195Z,20.63
2018-09-19T20:08:20.456Z,18.80
2018-09-19T20:10:48.746Z,19.60
2018-09-19T20:13:17.053Z,21.10
2018-09-19T20:15:45.369Z,19.90
2018-09-19T20:18:13.657Z,20.13
2018-09-19T20:20:41.965Z,20.13
2018-09-19T20:23:10.321Z,21.33
2018-09-19T20:25:38.597Z,20.87
2018-09-19T20:28:06.969Z,21.17
2018-09-19T20:30:35.393Z,21.07
2018-09-19T20:33:03.682Z,22.47
2018-09-19T20:35:32.038Z,21.20
2018-09-19T20:38:00.286Z,23.37
2018-09-19T20:40:28.555Z,22.53
2018-09-19T20:42:56.953Z,22.30
2018-09-19T20:45:25.209Z,21.47
2018-09-19T20:47:53.521Z,21.63
2018-09-19T20:50:21.836Z,22.33
2018-09-19T20:52:50.108Z,21.77
2018-09-19T20:55:18.404Z,22.37
2018-09-19T20:57:46.703Z,21.67
2018-09-19T21:00:14.974Z,21.67
2018-09-19T21:02:43.272Z,20.97
2018-09-19T21:05:11.593Z,22.07
2018-09-19T21:07:39.941Z,21.93
2018-09-19T21:10:08.225Z,21.47
2018-09-19T21:12:36.501Z,21.10
2018-09-19T21:15:04.771Z,20.63
2018-09-19T21:17:33.045Z,20.97
2018-09-19T21:20:01.446Z,20.50
2018-09-19T21:22:29.778Z,19.63
2018-09-19T21:24:58.049Z,19.90
2018-09-19T21:27:26.338Z,18.90
2018-09-19T21:29:54.622Z,18.90
2018-09-19T21:32:23.005Z,17.97
2018-09-19T21:34:51.206Z,17.40
2018-09-19T21:37:19.461Z,17.40
2018-09-19T21:39:47.793Z,16.50
2018-09-19T21:42:16.074Z,17.23
2018-09-19T21:44:44.328Z,16.93
2018-09-19T21:47:12.573Z,17.73
2018-09-19T21:49:40.944Z,15.60
2018-09-19T21:52:09.232Z,14.73
2018-09-19T21:54:37.501Z,15.87
2018-09-19T21:57:05.750Z,16.33
2018-09-19T21:59:34.307Z,14.77
2018-09-19T22:02:02.587Z,15.00
2018-09-19T22:04:30.849Z,15.57
2018-09-19T22:06:59.107Z,14.27
2018-09-19T22:09:27.418Z,15.27
2018-09-19T22:11:55.851Z,14.20
2018-09-19T22:14:24.117Z,14.80
2018-09-19T22:16:52.914Z,14.07
2018-09-19T22:19:21.227Z,14.27
2018-09-19T22:21:49.523Z,14.57
2018-09-19T22:24:17.794Z,13.77
2018-09-19T22:26:46.150Z,13.77
2018-09-19T22:29:14.402Z,14.23
2018-09-19T22:31:42.681Z,13.50
2018-09-19T22:34:10.929Z,13.43
2018-09-19T22:36:39.282Z,13.87
2018-09-19T22:39:08.616Z,13.50
2018-09-19T22:41:36.920Z,11.90
2018-09-19T22:44:05.379Z,12.80
2018-09-19T22:46:33.685Z,12.10
2018-09-19T22:49:01.950Z,12.30
2018-09-19T22:51:30.422Z,12.23
2018-09-19T22:53:58.713Z,12.37
2018-09-19T22:56:27.045Z,10.97
2018-09-19T22:58:55.346Z,11.77
2018-09-19T23:01:23.679Z,11.83
2018-09-19T23:03:51.923Z,11.57
2018-09-19T23:06:20.189Z,10.30
2018-09-19T23:08:48.478Z,10.67
2018-09-19T23:11:16.745Z,10.50
2018-09-19T23:13:45.147Z,10.40
2018-09-19T23:16:13.434Z,9.67
2018-09-19T23:18:41.681Z,10.47
2018-09-19T23:21:09.950Z,9.43
2018-09-19T23:23:38.213Z,10.23
2018-09-19T23:26:06.708Z,10.73
2018-09-19T23:28:34.985Z,10.50
2018-09-19T23:31:03.253Z,10.60
2018-09-19T23:33:31.532Z,10.17
2018-09-19T23:35:59.815Z,9.40
2018-09-19T23:38:28.077Z,10.00
2018-09-19T23:40:56.477Z,10.03
2018-09-19T23:43:25.126Z,10.10
2018-09-19T23:45:53.403Z,9.37
2018-09-19T23:48:21.628Z,9.87
2018-09-19T23:50:49.890Z,10.70
2018-09-19T23:53:18.157Z,9.57
2018-09-19T23:55:46.427Z,9.27
2018-09-19T23:58:14.807Z,9.20
